Terminal Aerodrome Forecast
Issued by NWS

Home | Current Version | Previous Version | Text Only | Print | Product List | Glossary On
Versions: 1 2 3 4 5 6 7 8 9 10 11 12 13 14 15 16 17 18 19 20 21 22 23 24 25 26 27 28
000
FTUS45 KGJT 231809 AAA
TAFDRO
TAF AMD
KDRO 231809Z 2318/2418 VRB04KT P6SM SCT025
     FM231900 26006KT P6SM SCT035 BKN050
     FM240000 29010G18KT P6SM SCT040 BKN110
     FM240600 35004KT P6SM SCT180=

USA.gov is the U.S. government's official web portal to all federal, state and local government web resources and services.